Time;durP1;ratioP1;P1;durP2;ratioP2;P2;SDS_P1;SDS_P2;PMS_P1;PMS_P2;Temp;Humidity;BMP_temperature;BMP_pressure;BME280_temperature;BME280_humidity;BME280_pressure;Samples;Min_cycle;Max_cycle;Signal;HPM_P1;HPM_P2
2021/07/27 05:53:48;;;;;;;14.27;11.75;;;;;;;;;;10055602;27;15803497;-87
2021/07/27 05:58:53;;;;;;;11.55;9.40;;;;;;;;;;10550488;28;20035;-86
2021/07/27 06:03:54;;;;;;;14.60;11.18;;;;;;;;;;10586960;28;20136;-87
2021/07/27 06:08:55;;;;;;;17.73;13.10;;;;;;;;;;10572237;28;20069;-87
2021/07/27 06:13:56;;;;;;;17.58;13.98;;;;;;;;;;10593705;28;20038;-87
2021/07/27 06:24:41;;;;;;;14.68;12.70;;;;;;;;;;10590156;28;20047;-87
2021/07/27 06:29:43;;;;;;;11.80;9.98;;;;;;;;;;10572908;28;20020;-87
2021/07/27 06:34:44;;;;;;;15.30;12.05;;;;;;;;;;10586776;28;20386;-86
2021/07/27 06:39:52;;;;;;;14.27;11.45;;;;;;;;;;10568425;28;20051;-86
2021/07/27 06:45:20;;;;;;;9.90;8.77;;;;;;;;;;10591386;28;20112;-87
2021/07/27 06:50:48;;;;;;;8.13;6.55;;;;;;;;;;10583492;28;20522;-87
2021/07/27 06:55:53;;;;;;;16.52;13.85;;;;;;;;;;10574609;28;20063;-85
2021/07/27 07:00:55;;;;;;;15.73;13.77;;;;;;;;;;10599884;28;20103;-85
2021/07/27 07:05:56;;;;;;;16.92;13.13;;;;;;;;;;10544295;28;20478;-83
2021/07/27 07:11:04;;;;;;;13.55;10.10;;;;;;;;;;10542850;28;20180;-84
2021/07/27 07:16:09;;;;;;;12.48;8.55;;;;;;;;;;10536269;28;20077;-84
2021/07/27 07:21:10;;;;;;;9.32;7.85;;;;;;;;;;10541310;28;20039;-84
2021/07/27 07:26:11;;;;;;;11.23;9.55;;;;;;;;;;10542990;28;20023;-85
2021/07/27 07:31:16;;;;;;;11.38;9.25;;;;;;;;;;10537457;28;20039;-82
2021/07/27 07:36:17;;;;;;;16.27;13.68;;;;;;;;;;10533625;28;20115;-83
2021/07/27 07:41:21;;;;;;;11.40;9.10;;;;;;;;;;10532715;28;20031;-83
2021/07/27 07:46:22;;;;;;;11.38;9.82;;;;;;;;;;10550214;28;20020;-83
2021/07/27 07:51:29;;;;;;;15.57;11.60;;;;;;;;;;10549992;28;20028;-85
2021/07/27 07:56:34;;;;;;;10.65;9.20;;;;;;;;;;10531050;28;20024;-83
2021/07/27 08:01:37;;;;;;;12.57;11.23;;;;;;;;;;10529236;28;20139;-82
2021/07/27 08:06:38;;;;;;;12.32;10.43;;;;;;;;;;10520618;28;20032;-83
2021/07/27 08:11:40;;;;;;;12.68;8.98;;;;;;;;;;10533463;28;20020;-83
2021/07/27 08:16:41;;;;;;;12.85;10.82;;;;;;;;;;10530046;28;20024;-83
2021/07/27 08:21:42;;;;;;;12.65;9.20;;;;;;;;;;10530803;28;20024;-84
2021/07/27 08:26:43;;;;;;;11.50;10.10;;;;;;;;;;10531599;28;20097;-83
2021/07/27 08:31:50;;;;;;;11.30;9.82;;;;;;;;;;10547218;28;20059;-83
2021/07/27 08:36:55;;;;;;;11.75;8.88;;;;;;;;;;10532031;28;20506;-84
2021/07/27 08:42:01;;;;;;;11.18;8.65;;;;;;;;;;10530351;28;20024;-84
2021/07/27 08:47:06;;;;;;;9.63;8.63;;;;;;;;;;10548469;28;20024;-81
2021/07/27 08:52:08;;;;;;;12.63;8.95;;;;;;;;;;10531111;28;20047;-84
2021/07/27 08:58:00;;;;;;;11.65;8.55;;;;;;;;;;10547537;28;20054;-84
2021/07/27 09:03:22;;;;;;;8.82;7.45;;;;;;;;;;10553161;28;20031;-84
2021/07/27 09:08:29;;;;;;;11.23;7.88;;;;;;;;;;10542364;28;20028;-84
2021/07/27 09:13:34;;;;;;;12.05;8.00;;;;;;;;;;10540595;28;20024;-79
2021/07/27 09:18:37;;;;;;;10.00;8.52;;;;;;;;;;10549497;28;20026;-82
2021/07/27 09:23:50;;;;;;;9.40;7.85;;;;;;;;;;10540605;28;20557;-80
2021/07/27 09:29:00;;;;;;;7.90;7.10;;;;;;;;;;10524424;28;20020;-80
2021/07/27 09:34:11;;;;;;;8.93;7.57;;;;;;;;;;10524061;28;20481;-80
2021/07/27 09:39:12;;;;;;;10.27;7.32;;;;;;;;;;10543185;28;20024;-80
2021/07/27 09:44:14;;;;;;;10.75;7.20;;;;;;;;;;10544066;28;20077;-80
2021/07/27 09:49:17;;;;;;;8.52;7.38;;;;;;;;;;10528125;28;20466;-80
2021/07/27 09:54:23;;;;;;;11.70;10.40;;;;;;;;;;10523771;28;20386;-80
2021/07/27 09:59:25;;;;;;;9.60;7.05;;;;;;;;;;10523093;28;20123;-80
2021/07/27 10:04:29;;;;;;;11.60;8.35;;;;;;;;;;10523656;28;20028;-80
2021/07/27 10:09:34;;;;;;;9.40;8.48;;;;;;;;;;10541820;28;20057;-80
2021/07/27 10:14:48;;;;;;;8.57;7.68;;;;;;;;;;10542663;28;20026;-80
2021/07/27 10:19:52;;;;;;;8.25;7.30;;;;;;;;;;10524437;28;20028;-81
2021/07/27 10:24:53;;;;;;;8.73;7.93;;;;;;;;;;10523355;28;20016;-79
2021/07/27 10:30:07;;;;;;;11.40;8.63;;;;;;;;;;10542699;28;20028;-80
2021/07/27 10:35:27;;;;;;;7.82;6.95;;;;;;;;;;10523600;28;20024;-80
2021/07/27 10:40:29;;;;;;;9.15;7.70;;;;;;;;;;10531626;28;20473;-80
2021/07/27 10:45:30;;;;;;;8.07;7.28;;;;;;;;;;10550349;28;20028;-80
2021/07/27 10:50:52;;;;;;;9.50;7.95;;;;;;;;;;10532578;28;20038;-84
2021/07/27 10:55:58;;;;;;;9.15;7.63;;;;;;;;;;10529413;28;20081;-81
2021/07/27 11:01:09;;;;;;;9.85;7.50;;;;;;;;;;10539845;28;20090;-83
2021/07/27 11:06:10;;;;;;;9.00;8.10;;;;;;;;;;10562285;28;20036;-85
2021/07/27 11:11:17;;;;;;;10.68;7.90;;;;;;;;;;10541521;28;20473;-84
2021/07/27 11:16:18;;;;;;;8.23;7.10;;;;;;;;;;10540637;28;20020;-83
2021/07/27 11:21:22;;;;;;;9.30;8.20;;;;;;;;;;10539581;28;20035;-83
2021/07/27 11:26:24;;;;;;;8.18;7.28;;;;;;;;;;10524719;28;20435;-83
2021/07/27 11:31:25;;;;;;;8.70;7.18;;;;;;;;;;10553210;28;20386;-81
2021/07/27 11:36:28;;;;;;;9.27;7.88;;;;;;;;;;10534972;28;20060;-82
2021/07/27 11:41:31;;;;;;;8.75;7.80;;;;;;;;;;10533099;28;20036;-81
2021/07/27 11:46:44;;;;;;;8.88;7.88;;;;;;;;;;10550578;28;20020;-80
2021/07/27 11:51:45;;;;;;;9.35;7.30;;;;;;;;;;10534410;28;20028;-82
2021/07/27 11:56:47;;;;;;;13.38;9.20;;;;;;;;;;10537726;28;20115;-82
2021/07/27 12:01:48;;;;;;;10.55;8.40;;;;;;;;;;10534857;28;20073;-82
2021/07/27 12:06:49;;;;;;;9.30;8.25;;;;;;;;;;10542085;28;20076;-82
2021/07/27 12:11:51;;;;;;;7.93;7.13;;;;;;;;;;10535696;28;20093;-82
2021/07/27 12:16:52;;;;;;;10.07;7.00;;;;;;;;;;10535827;28;20115;-80
2021/07/27 12:21:55;;;;;;;8.60;6.38;;;;;;;;;;10533723;28;20105;-81
2021/07/27 12:26:56;;;;;;;8.23;6.38;;;;;;;;;;10532971;28;20036;-80
2021/07/27 12:31:57;;;;;;;7.20;6.30;;;;;;;;;;10531014;28;20043;-81
2021/07/27 12:36:58;;;;;;;7.47;6.60;;;;;;;;;;10531514;28;20089;-81
2021/07/27 12:41:59;;;;;;;10.35;6.88;;;;;;;;;;10531174;28;20024;-79
2021/07/27 12:47:00;;;;;;;8.18;6.13;;;;;;;;;;10535298;28;20028;-79
2021/07/27 12:52:03;;;;;;;8.27;6.80;;;;;;;;;;10531823;28;20028;-80
2021/07/27 12:57:04;;;;;;;9.38;8.20;;;;;;;;;;10549352;28;20058;-80
2021/07/27 13:02:05;;;;;;;9.73;7.22;;;;;;;;;;10539123;28;20038;-80
2021/07/27 13:07:18;;;;;;;9.98;8.27;;;;;;;;;;10528230;28;20032;-81
2021/07/27 13:12:19;;;;;;;7.78;7.05;;;;;;;;;;10527158;28;20024;-81
2021/07/27 13:17:31;;;;;;;9.38;8.45;;;;;;;;;;10545805;28;20462;-81
2021/07/27 13:22:52;;;;;;;8.93;6.68;;;;;;;;;;10562121;28;20040;-86
2021/07/27 13:27:55;;;;;;;8.50;7.60;;;;;;;;;;10537042;28;20020;-85
2021/07/27 13:32:56;;;;;;;10.38;7.63;;;;;;;;;;10537748;28;20033;-85
2021/07/27 13:37:57;;;;;;;8.65;7.85;;;;;;;;;;10536541;28;20020;-85
2021/07/27 13:42:59;;;;;;;10.63;9.55;;;;;;;;;;10550492;28;20036;-82
2021/07/27 13:48:03;;;;;;;8.55;7.72;;;;;;;;;;10533012;28;20501;-84
2021/07/27 13:53:04;;;;;;;10.23;9.13;;;;;;;;;;10532574;28;20024;-81
2021/07/27 13:58:05;;;;;;;10.15;9.05;;;;;;;;;;10548838;28;20035;-81
2021/07/27 14:03:28;;;;;;;8.77;7.78;;;;;;;;;;10530640;28;20024;-82
2021/07/27 14:08:30;;;;;;;9.23;8.30;;;;;;;;;;10540901;28;20051;-85
2021/07/27 14:13:31;;;;;;;11.68;9.02;;;;;;;;;;10532990;28;20077;-81
2021/07/27 14:18:32;;;;;;;9.52;8.35;;;;;;;;;;10553069;28;20054;-81
2021/07/27 14:23:34;;;;;;;11.60;8.93;;;;;;;;;;10556497;28;20077;-83
2021/07/27 14:28:35;;;;;;;9.55;8.55;;;;;;;;;;10541780;28;20123;-84
2021/07/27 14:33:36;;;;;;;7.85;7.05;;;;;;;;;;10542773;28;20032;-84
2021/07/27 14:38:37;;;;;;;8.77;7.38;;;;;;;;;;10544376;28;20024;-86
2021/07/27 14:43:39;;;;;;;10.93;8.77;;;;;;;;;;10545706;28;20020;-86
2021/07/27 14:48:43;;;;;;;9.05;8.13;;;;;;;;;;10547615;28;20024;-85
2021/07/27 14:53:44;;;;;;;11.68;8.27;;;;;;;;;;10569864;28;20111;-85
2021/07/27 14:58:45;;;;;;;9.35;7.10;;;;;;;;;;10551513;28;20027;-85
2021/07/27 15:03:47;;;;;;;8.63;7.57;;;;;;;;;;10549344;28;20377;-85
2021/07/27 15:08:48;;;;;;;9.23;8.18;;;;;;;;;;10566922;28;20020;-86
2021/07/27 15:13:49;;;;;;;12.25;9.38;;;;;;;;;;10550670;28;20038;-85
2021/07/27 15:18:50;;;;;;;8.70;7.05;;;;;;;;;;10547143;28;20039;-86
2021/07/27 15:23:51;;;;;;;9.48;7.32;;;;;;;;;;10542934;28;20030;-85
2021/07/27 15:28:57;;;;;;;9.95;7.28;;;;;;;;;;10543316;28;20386;-84
2021/07/27 15:33:59;;;;;;;8.52;7.25;;;;;;;;;;10557831;28;20136;-86
2021/07/27 15:39:00;;;;;;;11.98;7.07;;;;;;;;;;10537719;28;20038;-84
2021/07/27 15:44:05;;;;;;;9.10;7.10;;;;;;;;;;10531889;28;20048;-80
2021/07/27 15:49:08;;;;;;;9.45;6.50;;;;;;;;;;10529676;28;20456;-80
2021/07/27 15:54:30;;;;;;;8.63;6.18;;;;;;;;;;10530143;28;20380;-81
2021/07/27 15:59:41;;;;;;;6.60;5.82;;;;;;;;;;10411698;28;20397;-81
2021/07/27 16:04:42;;;;;;;8.35;5.43;;;;;;;;;;10532039;28;20575;-81
2021/07/27 16:09:43;;;;;;;6.78;4.95;;;;;;;;;;10543919;28;20094;-84
2021/07/27 16:14:44;;;;;;;6.95;4.82;;;;;;;;;;10561249;28;20051;-86
2021/07/27 16:20:08;;;;;;;5.35;3.63;;;;;;;;;;10540912;28;20035;-86
2021/07/27 16:25:09;;;;;;;5.22;3.90;;;;;;;;;;10559935;28;20019;-86
2021/07/27 16:59:17;;;;;;;8.15;5.05;;;;;;;;;;10560262;22;20529;-86
2021/07/27 17:05:02;;;;;;;8.23;4.70;;;;;;;;;;10315299;28;20077;-88
2021/07/27 17:16:40;;;;;;;8.20;5.55;;;;;;;;;;10480457;28;20033;-86
2021/07/27 17:21:52;;;;;;;6.13;4.68;;;;;;;;;;10435570;28;20029;-86
2021/07/27 17:27:46;;;;;;;;;;;;;;;;;;;;;
